Time;durP1;ratioP1;P1;durP2;ratioP2;P2;SDS_P1;SDS_P2;PMS_P1;PMS_P2;Temp;Humidity;BMP_temperature;BMP_pressure;BME280_temperature;BME280_humidity;BME280_pressure;Samples;Min_cycle;Max_cycle;Signal;HPM_P1;HPM_P2
2023/03/12 00:00:09;;;;;;;5.57;2.57;;;4.30;72.90;;;7.18;51.52;101095.22;5114957;28;20181;-54
2023/03/12 00:02:36;;;;;;;3.57;2.27;;;4.30;72.80;;;7.22;51.00;101090.53;5113464;28;20634;-54
2023/03/12 00:05:05;;;;;;;6.07;3.47;;;4.30;73.00;;;7.25;51.16;101087.63;5114026;28;20219;-55
2023/03/12 00:07:32;;;;;;;6.93;3.40;;;4.40;73.20;;;7.26;51.62;101092.72;5114119;28;20278;-54
2023/03/12 00:09:59;;;;;;;5.00;2.63;;;4.40;73.00;;;7.26;50.86;101084.03;5113161;28;20193;-53
2023/03/12 00:12:27;;;;;;;6.33;2.83;;;4.40;72.90;;;7.25;51.06;101085.00;5113729;28;20204;-55
2023/03/12 00:14:54;;;;;;;5.17;2.63;;;4.40;72.80;;;7.24;50.63;101088.59;5113967;28;20184;-55
2023/03/12 00:17:21;;;;;;;4.43;2.70;;;4.40;73.00;;;7.22;50.86;101086.13;5114428;28;20203;-54
2023/03/12 00:19:51;;;;;;;5.80;2.90;;;4.30;72.70;;;7.18;51.25;101083.94;5114055;28;20224;-55
2023/03/12 00:22:21;;;;;;;4.23;2.40;;;4.30;72.60;;;7.15;51.15;101084.22;5113941;28;20186;-53
2023/03/12 00:24:51;;;;;;;4.40;2.47;;;4.30;72.50;;;7.11;51.54;101090.69;5114466;28;20251;-56
2023/03/12 00:27:19;;;;;;;6.17;3.13;;;4.20;72.50;;;7.07;50.92;101091.94;5114353;28;20215;-55
2023/03/12 00:29:47;;;;;;;4.13;2.60;;;4.20;72.40;;;7.04;51.17;101092.22;5114397;28;20219;-56
2023/03/12 00:32:15;;;;;;;7.37;2.93;;;4.20;73.10;;;7.03;51.69;101085.38;5114468;28;20188;-54
2023/03/12 00:34:42;;;;;;;5.37;2.47;;;4.20;73.10;;;7.03;50.99;101085.38;5116677;28;20263;-55
2023/03/12 00:37:09;;;;;;;5.23;2.40;;;4.20;73.40;;;7.02;52.09;101078.47;5118495;28;20199;-56
2023/03/12 00:39:36;;;;;;;4.10;2.40;;;4.10;73.30;;;6.98;51.28;101077.13;5117979;28;20281;-55
2023/03/12 00:42:04;;;;;;;5.07;2.70;;;4.10;73.10;;;6.96;51.83;101076.44;5118127;28;20648;-55
2023/03/12 00:44:31;;;;;;;5.43;2.67;;;4.10;73.40;;;6.95;51.14;101085.25;5117886;28;20211;-57
2023/03/12 00:46:59;;;;;;;6.90;3.23;;;4.10;73.40;;;6.92;51.81;101080.31;5118184;28;20272;-53
2023/03/12 00:49:26;;;;;;;3.77;2.70;;;4.10;73.30;;;6.91;52.08;101081.28;5117796;28;20196;-54
2023/03/12 00:51:53;;;;;;;6.90;2.50;;;4.00;73.40;;;6.89;51.63;101083.22;5117652;28;20199;-53
2023/03/12 00:54:21;;;;;;;5.57;3.63;;;4.00;73.40;;;6.88;51.16;101071.09;5118103;28;20219;-55
2023/03/12 00:56:48;;;;;;;4.03;2.77;;;4.00;73.70;;;6.86;51.59;101073.03;5118169;28;20215;-54
2023/03/12 00:59:15;;;;;;;5.53;3.10;;;4.00;73.60;;;6.85;51.34;101068.78;5117856;28;20215;-55
2023/03/12 01:01:43;;;;;;;4.33;3.20;;;3.90;73.50;;;6.85;51.84;101077.41;5118342;28;20191;-53
2023/03/12 01:04:11;;;;;;;4.97;2.70;;;4.00;74.10;;;6.82;51.50;101073.31;5117816;28;20208;-54
2023/03/12 01:06:38;;;;;;;8.50;3.07;;;3.90;74.20;;;6.82;51.71;101078.53;5117909;28;20574;-54
2023/03/12 01:09:08;;;;;;;6.07;3.30;;;3.90;74.30;;;6.79;52.16;101073.59;5117315;28;20216;-54
2023/03/12 01:11:37;;;;;;;2.80;2.50;;;3.90;74.20;;;6.76;51.45;101073.88;5118337;28;20190;-57
2023/03/12 01:14:08;;;;;;;9.20;3.73;;;3.90;74.20;;;6.74;51.55;101073.19;5118319;28;20269;-53
2023/03/12 01:16:34;;;;;;;4.83;3.17;;;3.90;74.50;;;6.73;52.04;101076.78;5117400;28;20210;-53
2023/03/12 01:19:03;;;;;;;6.90;2.83;;;3.80;74.30;;;6.73;52.63;101075.94;5117908;28;20466;-55
2023/03/12 01:21:31;;;;;;;5.10;2.83;;;3.80;74.50;;;6.72;52.05;101077.75;5117656;27;20195;-56
2023/03/12 01:23:58;;;;;;;6.43;2.70;;;3.80;74.30;;;6.72;51.90;101082.16;5117037;28;20205;-55
2023/03/12 01:26:25;;;;;;;5.43;2.60;;;3.80;74.30;;;6.70;51.70;101081.47;5117627;28;20221;-52
2023/03/12 01:28:52;;;;;;;6.07;3.20;;;3.80;74.40;;;6.70;52.13;101084.88;5117466;28;20646;-52
2023/03/12 01:31:20;;;;;;;6.03;2.90;;;3.80;74.40;;;6.68;52.19;101076.38;5116785;28;20196;-57
2023/03/12 01:33:49;;;;;;;4.80;2.70;;;3.80;74.40;;;6.67;51.92;101079.97;5116837;28;20217;-53
2023/03/12 01:36:19;;;;;;;7.37;3.57;;;3.80;74.50;;;6.67;52.57;101069.50;5117726;28;20560;-55
2023/03/12 01:38:50;;;;;;;4.50;3.23;;;3.80;75.60;;;6.71;53.05;101076.09;5117301;28;20189;-54
2023/03/12 01:41:17;;;;;;;5.70;3.90;;;3.80;75.20;;;6.75;53.80;101074.03;5117794;28;20212;-56
2023/03/12 01:43:45;;;;;;;8.67;3.00;;;3.90;75.70;;;6.76;52.92;101073.88;5123865;28;20210;-55
2023/03/12 01:46:31;;;;;;;4.93;3.53;;;3.90;74.90;;;6.73;52.77;101078.56;5123668;28;20673;-54
2023/03/12 01:49:07;;;;;;;6.87;3.90;;;4.00;74.90;;;6.76;52.93;101076.50;5123272;28;20204;-54
2023/03/12 01:51:40;;;;;;;4.93;3.10;;;4.00;75.10;;;6.80;52.50;101071.78;5123559;28;20176;-57
2023/03/12 01:54:14;;;;;;;6.00;3.07;;;4.00;74.90;;;6.79;52.42;101072.78;5123970;28;20206;-55
2023/03/12 01:56:42;;;;;;;5.33;4.07;;;4.00;74.80;;;6.80;52.48;101070.00;5116861;27;20254;-55
2023/03/12 01:59:15;;;;;;;6.10;3.87;;;4.00;74.60;;;6.80;53.63;101064.78;5116774;28;20281;-57
2023/03/12 02:01:44;;;;;;;7.80;3.67;;;4.00;75.30;;;6.86;53.02;101067.78;5116916;28;20228;-56
2023/03/12 02:04:14;;;;;;;8.67;3.60;;;4.10;75.10;;;6.87;53.19;101069.44;5116384;27;20222;-56
2023/03/12 02:06:50;;;;;;;8.47;4.40;;;4.10;75.00;;;6.90;53.40;101059.50;5116723;27;20216;-54
2023/03/12 02:09:20;;;;;;;5.73;3.50;;;4.10;75.10;;;6.94;52.74;101060.06;5116050;28;20645;-55
2023/03/12 02:11:47;;;;;;;9.90;3.83;;;4.10;74.90;;;6.94;52.97;101065.31;5116653;28;20188;-55
2023/03/12 02:14:15;;;;;;;9.83;4.17;;;4.20;74.40;;;6.91;52.36;101061.19;5116229;28;20223;-57
2023/03/12 02:16:43;;;;;;;7.90;4.50;;;4.20;74.10;;;6.83;52.88;101063.66;5116115;28;20547;-54
2023/03/12 02:19:22;;;;;;;12.67;5.60;;;4.10;73.60;;;6.71;53.00;101060.41;5116874;28;20198;-56
2023/03/12 02:21:49;;;;;;;7.10;3.73;;;4.10;73.50;;;6.61;52.32;101058.75;5116605;28;20283;-54
2023/03/12 02:24:29;;;;;;;8.53;4.20;;;4.00;73.30;;;6.52;52.47;101060.44;5115648;28;20208;-54
2023/03/12 02:26:59;;;;;;;10.33;5.43;;;3.90;73.50;;;6.53;53.38;101051.66;5115665;28;20208;-54
2023/03/12 02:29:31;;;;;;;14.23;7.63;;;3.90;74.70;;;6.53;53.05;101049.03;5116713;28;20182;-54
2023/03/12 02:32:03;;;;;;;12.90;6.37;;;3.90;74.50;;;6.54;53.45;101052.44;5116356;27;20178;-56
2023/03/12 02:34:30;;;;;;;10.93;6.07;;;3.80;74.30;;;6.53;53.67;101050.81;5116090;27;20241;-55
2023/03/12 02:36:57;;;;;;;22.33;12.20;;;3.80;74.60;;;6.52;53.33;101055.22;5115992;28;20212;-53
2023/03/12 02:39:24;;;;;;;10.83;4.93;;;3.80;74.40;;;6.48;53.22;101047.78;5116162;28;20197;-54
2023/03/12 02:41:54;;;;;;;10.13;5.57;;;3.80;74.20;;;6.44;53.29;101052.47;5115988;28;20258;-53
2023/03/12 02:44:25;;;;;;;8.90;4.97;;;3.70;74.10;;;6.39;53.09;101049.47;5115373;28;20261;-54
2023/03/12 02:46:54;;;;;;;10.40;5.43;;;3.70;74.20;;;6.39;52.83;101048.63;5115729;28;20215;-56
2023/03/12 02:49:25;;;;;;;6.30;4.10;;;3.60;74.20;;;6.34;53.65;101054.28;5116250;28;20491;-52
2023/03/12 02:51:53;;;;;;;7.33;4.37;;;3.60;74.60;;;6.27;53.29;101055.81;5115810;28;20200;-55
2023/03/12 02:54:21;;;;;;;4.83;2.70;;;3.50;74.40;;;6.22;53.40;101050.16;5120541;28;20624;-54
2023/03/12 02:56:49;;;;;;;9.97;3.70;;;3.50;74.50;;;6.17;53.49;101044.53;5114779;28;20192;-55
2023/03/12 02:59:20;;;;;;;6.70;3.60;;;3.50;74.70;;;6.08;53.49;101054.03;5115657;28;20188;-57
2023/03/12 03:01:53;;;;;;;6.03;3.50;;;3.40;75.10;;;5.97;54.99;101059.38;5115321;28;20202;-54
2023/03/12 03:04:20;;;;;;;7.17;3.30;;;3.30;75.50;;;5.88;54.84;101054.16;5115261;28;20209;-54
2023/03/12 03:06:47;;;;;;;5.67;2.60;;;3.30;75.70;;;5.86;54.62;101050.84;5115227;28;20213;-55
2023/03/12 03:09:15;;;;;;;5.90;4.17;;;3.20;75.30;;;5.82;54.42;101049.44;5114530;28;20193;-56
2023/03/12 03:11:42;;;;;;;8.53;4.57;;;3.20;76.00;;;5.77;55.04;101051.63;5114180;28;20200;-54
2023/03/12 03:14:09;;;;;;;8.43;3.87;;;3.10;76.10;;;5.70;55.79;101043.53;5115190;28;20262;-56
2023/03/12 03:16:36;;;;;;;7.80;3.93;;;3.10;76.30;;;5.66;55.39;101044.75;5114399;28;20563;-54
2023/03/12 03:19:05;;;;;;;5.30;3.10;;;3.10;76.60;;;5.64;55.79;101046.66;5115117;28;20511;-54
2023/03/12 03:21:34;;;;;;;5.30;3.57;;;3.00;76.60;;;5.61;55.24;101040.91;5115041;28;20604;-56
2023/03/12 03:24:01;;;;;;;4.60;3.27;;;3.00;76.80;;;5.55;56.15;101041.44;5114904;28;20217;-54
2023/03/12 03:26:28;;;;;;;5.83;3.27;;;2.90;77.00;;;5.48;56.27;101041.16;5114699;28;20215;-52
2023/03/12 03:28:55;;;;;;;4.03;3.13;;;2.90;77.20;;;5.41;55.85;101040.03;5114543;28;20680;-54
2023/03/12 03:31:22;;;;;;;3.63;2.53;;;2.90;77.20;;;5.37;55.50;101034.25;5114740;28;20208;-55
2023/03/12 03:33:49;;;;;;;8.03;3.83;;;2.80;77.30;;;5.35;55.82;101041.38;5114545;28;20266;-53
2023/03/12 03:36:18;;;;;;;5.77;3.30;;;2.80;77.50;;;5.34;55.71;101046.75;5114627;27;20556;-56
2023/03/12 03:38:48;;;;;;;5.37;3.17;;;2.80;77.50;;;5.34;56.40;101037.16;5114545;28;20708;-58
2023/03/12 03:41:16;;;;;;;6.13;2.73;;;2.70;77.70;;;5.33;56.24;101038.09;5114678;28;20193;-55
2023/03/12 03:43:43;;;;;;;5.90;3.73;;;2.70;77.80;;;5.32;56.40;101039.06;5114265;28;20216;-56
2023/03/12 03:46:12;;;;;;;5.33;3.30;;;2.70;77.90;;;5.30;56.51;101046.19;5114283;28;20672;-56
2023/03/12 03:48:40;;;;;;;5.43;3.60;;;2.70;77.90;;;5.29;55.79;101047.16;5114584;28;20188;-53
2023/03/12 03:51:10;;;;;;;7.27;3.13;;;2.70;78.00;;;5.33;55.64;101050.31;5114414;28;20284;-55
2023/03/12 03:53:39;;;;;;;3.70;3.13;;;2.70;77.90;;;5.39;56.50;101041.97;5113816;27;20300;-55
2023/03/12 03:56:08;;;;;;;6.90;3.23;;;2.70;77.90;;;5.41;56.33;101050.47;5114179;28;20184;-54
2023/03/12 03:58:35;;;;;;;5.07;2.77;;;2.70;77.90;;;5.42;55.86;101049.50;5113985;28;20190;-54
2023/03/12 04:01:04;;;;;;;5.50;3.17;;;2.70;78.00;;;5.41;55.76;101040.88;5114795;28;20192;-57
2023/03/12 04:03:33;;;;;;;4.70;3.10;;;2.70;78.10;;;5.46;56.33;101043.91;5113855;28;20221;-52
2023/03/12 04:06:03;;;;;;;3.77;3.07;;;2.70;77.80;;;5.53;55.83;101040.75;5114326;28;20219;-56
2023/03/12 04:08:31;;;;;;;3.73;3.13;;;2.80;78.10;;;5.59;56.33;101048.84;5113113;28;20184;-54
2023/03/12 04:11:05;;;;;;;4.63;3.40;;;2.80;78.10;;;5.64;55.54;101036.22;5114531;28;20192;-54
2023/03/12 04:13:32;;;;;;;4.37;2.87;;;2.80;77.90;;;5.74;55.12;101046.69;5113604;28;20216;-53
2023/03/12 04:15:59;;;;;;;8.13;3.33;;;2.80;78.00;;;5.84;56.03;101042.31;5113803;28;20528;-55
2023/03/12 04:18:26;;;;;;;3.37;2.77;;;2.90;78.80;;;5.92;55.44;101043.28;5113633;28;20191;-55
2023/03/12 04:20:53;;;;;;;5.47;3.00;;;3.00;78.40;;;5.99;55.09;101040.97;5114251;28;20283;-54
2023/03/12 04:23:20;;;;;;;5.43;3.07;;;3.00;77.90;;;6.00;54.39;101037.38;5113528;28;20219;-55
2023/03/12 04:25:47;;;;;;;5.17;2.90;;;3.10;77.60;;;5.98;54.30;101029.69;5113984;28;20231;-53
2023/03/12 04:28:15;;;;;;;2.57;2.30;;;3.10;77.30;;;6.01;55.20;101028.59;5113962;28;20188;-54
2023/03/12 04:30:42;;;;;;;6.93;2.90;;;3.10;77.70;;;6.03;54.57;101031.88;5114348;28;20187;-56
2023/03/12 04:33:09;;;;;;;4.47;2.80;;;3.20;77.40;;;6.03;55.28;101026.66;5113914;28;20219;-55
2023/03/12 04:35:36;;;;;;;7.37;3.10;;;3.20;77.50;;;6.07;54.13;101030.63;5114320;28;20196;-53
2023/03/12 04:38:03;;;;;;;4.27;3.27;;;3.20;77.50;;;6.09;55.00;101026.09;5114485;28;20193;-53
2023/03/12 04:40:30;;;;;;;5.27;3.37;;;3.20;77.30;;;6.10;53.95;101017.31;5114577;28;20645;-54
2023/03/12 04:42:57;;;;;;;4.87;2.90;;;3.30;77.30;;;6.11;53.78;101018.94;5113929;28;20222;-55
2023/03/12 04:45:25;;;;;;;6.37;2.97;;;3.30;77.00;;;6.10;54.25;101012.91;5113926;28;20199;-56
2023/03/12 04:47:52;;;;;;;4.77;2.40;;;3.30;76.40;;;6.10;54.37;101018.16;5113848;28;20577;-54
2023/03/12 04:50:19;;;;;;;4.57;3.23;;;3.30;76.30;;;6.09;53.35;101013.03;5114039;28;20565;-54
2023/03/12 04:52:46;;;;;;;4.70;2.83;;;3.30;76.30;;;6.09;53.58;101013.03;5114148;28;20680;-57
2023/03/12 04:55:13;;;;;;;5.50;3.40;;;3.30;76.20;;;6.06;53.98;101015.94;5114001;28;20234;-55
2023/03/12 04:57:40;;;;;;;4.87;3.03;;;3.20;75.90;;;6.03;53.56;101016.22;5114289;28;20198;-55
2023/03/12 05:00:11;;;;;;;4.70;2.73;;;3.20;75.80;;;6.00;54.57;101006.03;5114056;28;20196;-53
2023/03/12 05:02:40;;;;;;;5.63;3.30;;;3.20;75.80;;;5.98;53.49;101005.34;5113639;28;20195;-56
2023/03/12 05:05:10;;;;;;;6.43;3.80;;;3.20;76.40;;;6.00;54.52;100996.41;5113963;28;20208;-54
2023/03/12 05:07:37;;;;;;;5.27;2.97;;;3.20;76.60;;;6.00;54.33;100995.59;5114045;28;20630;-54
2023/03/12 05:10:06;;;;;;;4.07;3.00;;;3.20;76.30;;;5.98;54.24;100994.91;5113836;28;20200;-53
2023/03/12 05:12:33;;;;;;;5.60;2.93;;;3.20;76.80;;;6.01;54.08;100986.81;5114729;28;20188;-55
2023/03/12 05:15:00;;;;;;;5.27;3.77;;;3.10;76.70;;;6.02;54.02;100989.25;5113765;28;20197;-55
2023/03/12 05:17:27;;;;;;;5.43;2.80;;;3.20;76.50;;;6.02;54.10;100984.03;5113267;28;20197;-53
2023/03/12 05:19:55;;;;;;;3.73;2.80;;;3.20;76.40;;;6.05;54.45;100990.78;5116460;28;20184;-54
2023/03/12 05:22:22;;;;;;;5.87;3.00;;;3.20;76.40;;;6.06;53.52;100985.41;5117176;28;20218;-53
2023/03/12 05:24:49;;;;;;;6.33;3.00;;;3.20;76.30;;;6.04;53.98;100989.13;5116917;28;20553;-55
2023/03/12 05:27:16;;;;;;;4.67;2.70;;;3.20;76.10;;;6.00;54.03;100980.75;5117074;28;20208;-55
2023/03/12 05:29:43;;;;;;;4.53;2.83;;;3.20;76.00;;;6.00;54.72;100974.69;5116951;27;20191;-54
2023/03/12 05:32:10;;;;;;;6.83;3.40;;;3.20;76.20;;;6.04;54.33;100966.44;5116512;28;20190;-55
2023/03/12 05:34:37;;;;;;;4.20;2.97;;;3.20;76.70;;;6.08;54.55;100961.75;5116592;28;20201;-53
2023/03/12 05:37:05;;;;;;;5.50;2.90;;;3.20;76.60;;;6.10;54.38;100960.66;5117084;28;20183;-54
2023/03/12 05:39:32;;;;;;;5.47;3.37;;;3.20;76.40;;;6.08;53.34;100961.75;5115914;28;20200;-55
2023/03/12 05:41:59;;;;;;;6.60;3.93;;;3.20;76.20;;;6.02;53.63;100959.69;5117108;28;20717;-53
2023/03/12 05:44:26;;;;;;;4.20;2.70;;;3.20;76.20;;;6.04;53.86;100950.75;5116514;28;20221;-54
2023/03/12 05:46:53;;;;;;;4.50;3.30;;;3.20;76.30;;;6.02;54.32;100951.88;5117219;28;20565;-52
2023/03/12 05:49:23;;;;;;;4.20;3.00;;;3.20;76.00;;;6.04;53.29;100944.69;5122566;28;20205;-52
2023/03/12 05:51:50;;;;;;;7.07;3.40;;;3.20;76.10;;;6.09;53.67;100952.94;5116699;28;20284;-53
2023/03/12 05:54:18;;;;;;;4.80;2.60;;;3.20;76.20;;;6.12;53.05;100953.50;5116535;28;20714;-53
2023/03/12 05:56:45;;;;;;;4.30;2.87;;;3.20;75.90;;;6.16;52.98;100958.47;5116885;28;20204;-60
2023/03/12 05:59:12;;;;;;;4.07;3.50;;;3.30;75.90;;;6.20;54.08;100955.41;5116599;28;20198;-56
2023/03/12 06:01:40;;;;;;;5.00;3.03;;;3.30;76.10;;;6.26;53.51;100952.22;5116972;28;20185;-53
2023/03/12 06:04:08;;;;;;;4.53;2.87;;;3.30;76.00;;;6.34;53.25;100956.75;5116389;28;20680;-55
2023/03/12 06:06:36;;;;;;;7.00;3.10;;;3.30;76.30;;;6.40;52.74;100951.78;5116871;28;20211;-52
2023/03/12 06:09:04;;;;;;;7.13;3.53;;;3.40;75.80;;;6.39;52.91;100957.97;5116210;28;20205;-56
2023/03/12 06:11:34;;;;;;;3.20;2.90;;;3.40;75.20;;;6.40;53.37;100951.78;5116791;28;20266;-55
2023/03/12 06:14:01;;;;;;;3.77;3.27;;;3.50;75.20;;;6.38;52.25;100948.47;5115752;28;20229;-53
2023/03/12 06:16:28;;;;;;;3.40;3.10;;;3.50;74.30;;;6.33;52.80;100940.25;5115815;28;20336;-54
2023/03/12 06:18:59;;;;;;;6.57;3.80;;;3.50;73.90;;;6.25;52.26;100947.16;5116491;28;20295;-54
2023/03/12 06:21:29;;;;;;;7.90;3.80;;;3.50;73.60;;;6.17;52.53;100942.63;5116725;28;20204;-53
2023/03/12 06:23:57;;;;;;;4.37;3.27;;;3.40;73.30;;;6.17;52.91;100949.63;5116545;28;20231;-57
2023/03/12 06:26:25;;;;;;;5.17;4.07;;;3.40;73.40;;;6.15;51.93;100941.94;5116509;28;20216;-55
2023/03/12 06:28:54;;;;;;;6.73;3.33;;;3.40;73.30;;;6.12;51.78;100932.59;5117073;28;20199;-55
2023/03/12 06:31:22;;;;;;;3.87;3.50;;;3.30;73.00;;;6.11;51.91;100935.34;5115952;28;20197;-56
2023/03/12 06:33:50;;;;;;;4.90;3.07;;;3.30;73.10;;;6.09;51.97;100926.81;5116340;28;20209;-55
2023/03/12 06:36:17;;;;;;;5.10;3.53;;;3.30;73.20;;;6.08;51.72;100931.25;5116316;28;20203;-55
2023/03/12 06:38:44;;;;;;;4.73;3.90;;;3.30;73.10;;;6.03;52.77;100927.41;5116786;28;20223;-55
2023/03/12 06:41:15;;;;;;;4.13;3.50;;;3.30;73.00;;;6.04;52.50;100923.81;5117211;28;20663;-56
2023/03/12 06:43:43;;;;;;;8.00;3.73;;;3.30;72.90;;;6.13;52.02;100925.59;5116349;28;20673;-54
2023/03/12 06:46:15;;;;;;;3.93;3.50;;;3.30;73.60;;;6.24;51.75;100925.41;5116352;28;20188;-56
2023/03/12 06:48:45;;;;;;;5.67;3.57;;;3.30;73.50;;;6.34;52.35;100923.59;5116665;28;20217;-55
2023/03/12 06:51:14;;;;;;;4.03;3.53;;;3.40;73.40;;;6.37;50.96;100915.47;5116497;28;20193;-53
2023/03/12 06:53:41;;;;;;;5.10;3.63;;;3.40;72.80;;;6.44;50.51;100913.91;5116431;28;20212;-55
2023/03/12 06:56:09;;;;;;;6.17;3.67;;;3.40;72.70;;;6.53;50.88;100914.88;5116338;28;20224;-55
2023/03/12 06:58:36;;;;;;;3.53;3.20;;;3.50;73.00;;;6.63;51.06;100916.44;5116491;28;20200;-56
2023/03/12 07:01:04;;;;;;;5.53;3.80;;;3.60;73.10;;;6.74;51.34;100908.44;5116056;28;20594;-54
2023/03/12 07:03:33;;;;;;;6.73;4.00;;;3.70;73.00;;;6.80;50.09;100912.25;5116683;28;20209;-55
2023/03/12 07:06:00;;;;;;;7.83;4.33;;;3.70;71.80;;;6.81;50.36;100912.09;5116623;28;20200;-53
2023/03/12 07:08:31;;;;;;;6.77;4.07;;;3.80;71.80;;;6.85;50.05;100917.06;5115288;28;20222;-54
2023/03/12 07:11:01;;;;;;;4.90;3.77;;;3.80;71.20;;;6.90;50.07;100920.03;5116088;28;20182;-54
2023/03/12 07:13:29;;;;;;;8.10;3.80;;;3.90;71.80;;;6.91;50.07;100919.06;5115581;28;20574;-54
2023/03/12 07:15:57;;;;;;;5.23;3.60;;;3.90;70.60;;;6.97;49.56;100918.47;5115669;28;20675;-55
2023/03/12 07:18:24;;;;;;;4.70;3.40;;;4.00;71.60;;;7.03;49.25;100912.66;5115553;28;20359;-56
2023/03/12 07:20:52;;;;;;;9.37;4.33;;;4.00;70.30;;;7.12;49.99;100911.78;5116722;28;20204;-52
2023/03/12 07:23:20;;;;;;;4.47;3.23;;;4.10;70.60;;;7.28;49.75;100914.56;5115344;28;20208;-54
2023/03/12 07:25:47;;;;;;;5.63;3.40;;;4.10;70.90;;;7.46;49.27;100907.53;5115661;28;20189;-54
2023/03/12 07:28:15;;;;;;;5.77;3.70;;;4.20;71.10;;;7.60;48.92;100896.53;5115773;27;20673;-59
2023/03/12 07:30:48;;;;;;;5.20;3.97;;;4.30;70.20;;;7.69;47.97;100894.78;5115105;28;20659;-56
2023/03/12 07:33:18;;;;;;;5.23;3.90;;;4.50;69.50;;;7.84;48.40;100899.34;5115082;28;20213;-55
2023/03/12 07:35:47;;;;;;;3.67;3.37;;;4.60;70.00;;;8.02;48.16;100889.63;5115104;28;20211;-54
2023/03/12 07:38:18;;;;;;;5.87;4.57;;;4.70;70.00;;;8.15;47.54;100887.41;5115261;28;20623;-53
2023/03/12 07:40:50;;;;;;;3.90;3.47;;;4.80;69.30;;;8.30;47.61;100889.47;5115342;28;20788;-55
2023/03/12 07:43:17;;;;;;;6.73;3.57;;;4.90;69.10;;;8.32;47.05;100890.16;5114880;28;20224;-53
2023/03/12 07:45:47;;;;;;;6.70;3.60;;;5.00;67.70;;;8.27;46.69;100890.63;5115349;28;20253;-53
2023/03/12 07:48:14;;;;;;;5.67;3.80;;;5.10;67.20;;;8.20;46.73;100894.84;5114789;28;20227;-56
2023/03/12 07:50:42;;;;;;;5.03;3.47;;;5.10;66.90;;;8.16;46.75;100899.53;5114910;28;20193;-54
2023/03/12 07:53:09;;;;;;;3.87;3.47;;;5.10;67.10;;;8.14;47.12;100893.63;5114758;28;20267;-55
2023/03/12 07:55:37;;;;;;;6.87;3.70;;;5.10;67.10;;;8.19;47.31;100903.66;5114930;28;20214;-54
2023/03/12 07:58:04;;;;;;;4.10;3.67;;;5.10;67.50;;;8.21;46.64;100901.69;5114944;28;20648;-55
2023/03/12 08:00:31;;;;;;;6.07;4.10;;;5.10;66.90;;;8.24;46.74;100903.19;5114752;28;20688;-56
2023/03/12 08:02:58;;;;;;;5.30;4.40;;;5.10;66.90;;;8.26;46.41;100909.09;5114405;28;20217;-56
2023/03/12 08:05:25;;;;;;;5.13;4.30;;;5.10;66.40;;;8.19;45.76;100904.50;5114542;28;20652;-57
2023/03/12 08:07:53;;;;;;;5.33;4.47;;;5.10;65.70;;;8.18;46.21;100908.06;5114442;28;20265;-55
2023/03/12 08:10:21;;;;;;;5.53;4.17;;;5.10;65.70;;;8.17;46.36;100901.19;5114199;28;20340;-55
2023/03/12 08:12:50;;;;;;;6.00;3.93;;;5.10;65.90;;;8.16;46.30;100899.53;5114702;28;20246;-55
2023/03/12 08:15:17;;;;;;;5.93;3.73;;;5.20;65.50;;;8.19;46.26;100903.66;5114907;28;20192;-53
2023/03/12 08:17:44;;;;;;;5.53;3.93;;;5.20;65.80;;;8.27;46.39;100895.88;5114234;28;20585;-54
2023/03/12 08:20:12;;;;;;;6.03;4.20;;;5.20;66.20;;;8.39;46.47;100899.06;5114769;28;20600;-56
2023/03/12 08:22:40;;;;;;;7.67;4.07;;;5.30;66.50;;;8.50;46.24;100896.16;5114557;28;20189;-55
2023/03/12 08:25:08;;;;;;;5.33;3.50;;;5.30;66.30;;;8.64;46.02;100877.19;5114852;28;20196;-53
2023/03/12 08:27:35;;;;;;;7.67;4.03;;;5.40;66.40;;;8.84;45.90;100889.06;5113847;27;20286;-55
2023/03/12 08:30:05;;;;;;;4.60;4.17;;;5.50;66.00;;;8.95;45.01;100880.88;5113530;28;20188;-54
2023/03/12 08:32:33;;;;;;;6.43;4.13;;;5.60;64.70;;;9.23;45.27;100874.38;5116848;28;20619;-56
2023/03/12 08:35:00;;;;;;;5.37;4.00;;;5.80;65.50;;;9.49;44.52;100880.31;5116598;28;20187;-54
2023/03/12 08:37:27;;;;;;;6.30;3.90;;;6.00;64.60;;;9.66;43.03;100878.50;5115627;28;20611;-54
2023/03/12 08:39:54;;;;;;;6.07;4.10;;;6.20;63.40;;;9.79;43.39;100870.13;5118687;28;20201;-56
2023/03/12 08:42:21;;;;;;;5.80;4.00;;;6.40;63.20;;;9.94;42.84;100874.53;5115023;28;20675;-56
2023/03/12 08:44:48;;;;;;;5.00;3.93;;;6.50;62.40;;;9.91;42.69;100880.09;5114890;28;20697;-53
2023/03/12 08:47:16;;;;;;;5.77;4.23;;;6.60;60.80;;;9.82;42.45;100872.38;5114565;28;20204;-53
2023/03/12 08:49:43;;;;;;;5.00;4.27;;;6.60;60.00;;;9.67;42.37;100879.31;5114240;28;20199;-57
2023/03/12 08:52:10;;;;;;;5.17;3.67;;;6.60;59.80;;;9.64;42.88;100877.00;5113931;28;20191;-55
2023/03/12 08:54:37;;;;;;;6.10;4.20;;;6.60;60.40;;;9.65;42.78;100868.16;5120969;28;20680;-56
2023/03/12 08:57:04;;;;;;;5.70;4.37;;;6.60;60.30;;;9.62;42.16;100852.72;5118363;28;20195;-56
2023/03/12 08:59:31;;;;;;;8.63;4.23;;;6.50;59.70;;;9.55;42.42;100842.84;5118792;28;20196;-56
2023/03/12 09:01:58;;;;;;;4.77;4.00;;;6.50;59.40;;;9.91;42.29;100845.13;5117701;28;20208;-54
2023/03/12 09:04:26;;;;;;;5.80;3.87;;;6.60;59.90;;;10.34;41.40;100841.25;5117969;28;20234;-53
2023/03/12 09:06:53;;;;;;;4.70;4.00;;;6.80;60.00;;;10.56;41.20;100841.31;5118354;28;20631;-55
2023/03/12 09:09:20;;;;;;;4.87;3.90;;;6.90;59.60;;;10.57;41.00;100834.25;5117790;28;20245;-53
2023/03/12 09:11:47;;;;;;;5.30;4.07;;;7.10;59.20;;;10.55;40.81;100831.78;5118585;28;20192;-55
2023/03/12 09:14:14;;;;;;;5.37;3.80;;;7.20;58.80;;;10.49;41.15;100832.47;5117904;28;20687;-55
2023/03/12 09:17:01;;;;;;;9.30;4.20;;;7.20;58.70;;;10.45;41.30;100831.19;5117580;28;20291;-54
2023/03/12 09:19:30;;;;;;;4.97;3.83;;;7.30;58.70;;;10.30;40.96;100819.72;5117671;28;20199;-55
2023/03/12 09:21:57;;;;;;;4.57;3.77;;;7.20;57.90;;;10.35;41.59;100809.50;5118072;28;20200;-53
2023/03/12 09:24:24;;;;;;;9.03;4.20;;;7.30;58.70;;;10.49;40.75;100811.41;5119505;28;20621;-57
2023/03/12 09:26:50;;;;;;;6.77;4.23;;;7.30;58.50;;;10.59;40.52;100811.19;5118446;28;20191;-55
2023/03/12 09:29:17;;;;;;;3.77;3.40;;;7.30;58.50;;;10.57;40.16;100803.47;5116846;28;20223;-54
2023/03/12 09:31:44;;;;;;;5.73;4.20;;;7.30;57.90;;;10.53;41.08;100801.38;5117618;28;20193;-53
2023/03/12 09:34:11;;;;;;;7.83;3.93;;;7.30;57.90;;;10.45;40.97;100794.34;5116477;28;20572;-57
2023/03/12 09:36:39;;;;;;;5.37;3.47;;;7.30;57.80;;;10.45;41.13;100782.97;5117471;28;20202;-55
2023/03/12 09:39:06;;;;;;;6.70;3.47;;;7.30;58.40;;;10.27;41.00;100772.69;5117142;28;20184;-58
2023/03/12 09:41:38;;;;;;;8.07;4.27;;;7.30;57.40;;;10.22;41.02;100768.97;5115760;28;20199;-53
2023/03/12 09:44:18;;;;;;;4.60;3.83;;;7.20;57.40;;;10.26;41.01;100757.09;5116346;28;20686;-53
2023/03/12 09:46:51;;;;;;;3.93;3.50;;;7.30;57.60;;;10.50;40.96;100754.34;5117210;28;20210;-55
2023/03/12 09:49:37;;;;;;;6.83;4.00;;;7.30;57.80;;;10.62;40.08;100759.06;5116770;28;20211;-55
2023/03/12 09:52:21;;;;;;;6.77;3.87;;;7.40;57.30;;;10.68;39.66;100753.06;5117250;27;20600;-56
2023/03/12 09:55:01;;;;;;;5.00;3.57;;;7.50;57.10;;;10.77;40.26;100753.81;5117084;28;20591;-53
2023/03/12 09:57:31;;;;;;;5.13;3.53;;;7.60;56.90;;;10.82;40.09;100751.50;5117073;27;20315;-53
2023/03/12 09:59:59;;;;;;;6.00;3.63;;;7.60;56.80;;;10.83;39.94;100739.97;5116713;28;20210;-56
2023/03/12 10:02:51;;;;;;;6.50;3.87;;;7.70;56.40;;;10.73;39.11;100740.22;5116041;28;20959;-57
2023/03/12 10:05:30;;;;;;;5.23;2.83;;;7.70;55.90;;;10.61;39.67;100741.59;5116512;28;20184;-55
2023/03/12 10:08:07;;;;;;;5.57;3.47;;;7.70;55.60;;;10.63;40.02;100736.16;5116568;28;20278;-55
2023/03/12 10:10:57;;;;;;;6.13;3.00;;;7.70;55.80;;;10.77;39.62;100745.94;5116518;28;20215;-54
2023/03/12 10:13:48;;;;;;;6.70;3.37;;;7.70;56.30;;;11.00;40.13;100735.41;5116015;28;20216;-54
2023/03/12 10:16:48;;;;;;;4.17;3.07;;;7.80;56.50;;;11.23;39.31;100730.91;5116641;28;20196;-54
2023/03/12 10:19:45;;;;;;;5.47;3.27;;;8.00;56.60;;;11.41;38.93;100718.25;5116930;28;20656;-55
2023/03/12 10:22:30;;;;;;;7.90;3.80;;;8.10;55.90;;;11.50;38.86;100711.88;5116940;27;20186;-53
2023/03/12 10:25:11;;;;;;;5.97;3.60;;;8.20;55.60;;;11.66;38.00;100695.88;5117271;28;20197;-53
2023/03/12 10:27:40;;;;;;;4.67;3.03;;;8.30;55.20;;;11.83;38.54;100689.44;5116570;28;20199;-53
2023/03/12 10:30:18;;;;;;;5.10;3.30;;;8.40;55.70;;;11.78;37.83;100681.25;5117212;28;20532;-55
2023/03/12 10:32:49;;;;;;;3.40;2.70;;;8.50;54.40;;;12.06;38.28;100670.84;5115591;28;20213;-55